createdAt,value
2023-03-10T00:01:29.977Z,98630.00
2023-03-10T00:03:59.726Z,98640.00
2023-03-10T00:06:32.332Z,98640.00
2023-03-10T00:08:59.686Z,98638.00
2023-03-10T00:11:26.931Z,98631.00
2023-03-10T00:13:54.060Z,98629.00
2023-03-10T00:16:25.454Z,98630.00
2023-03-10T00:18:53.174Z,98638.00
2023-03-10T00:21:27.745Z,98630.00
2023-03-10T00:23:55.798Z,98642.00
2023-03-10T00:26:26.027Z,98647.00
2023-03-10T00:28:54.698Z,98643.00
2023-03-10T00:31:25.545Z,98645.00
2023-03-10T00:33:52.516Z,98632.00
2023-03-10T00:36:28.617Z,98627.00
2023-03-10T00:38:56.632Z,98611.00
2023-03-10T00:41:27.733Z,98627.00
2023-03-10T00:43:54.553Z,98613.00
2023-03-10T00:46:21.681Z,98608.00
2023-03-10T00:48:48.711Z,98597.00
2023-03-10T00:51:16.571Z,98593.00
2023-03-10T00:53:44.235Z,98591.00
2023-03-10T00:56:24.346Z,98597.00
2023-03-10T00:58:54.707Z,98600.00
2023-03-10T01:01:32.665Z,98582.00
2023-03-10T01:04:07.714Z,98589.00
2023-03-10T01:06:35.552Z,98580.00
2023-03-10T01:09:04.126Z,98572.00
2023-03-10T01:11:32.532Z,98558.00
2023-03-10T01:14:03.599Z,98563.00
2023-03-10T01:16:30.492Z,98562.00
2023-03-10T01:18:58.666Z,98558.00
2023-03-10T01:21:32.717Z,98559.00
2023-03-10T01:24:01.060Z,98560.00
2023-03-10T01:26:29.396Z,98539.00
2023-03-10T01:28:56.386Z,98545.00
2023-03-10T01:31:24.055Z,98534.00
2023-03-10T01:33:51.116Z,98527.00
2023-03-10T01:36:26.546Z,98544.00
2023-03-10T01:38:56.490Z,98530.00
2023-03-10T01:41:23.583Z,98528.00
2023-03-10T01:43:55.060Z,98524.00
2023-03-10T01:46:39.888Z,98519.00
2023-03-10T01:49:31.451Z,98498.00
2023-03-10T01:52:24.721Z,98500.00
2023-03-10T01:55:03.914Z,98496.00
2023-03-10T01:57:37.661Z,98485.00
2023-03-10T02:00:14.729Z,98483.00
2023-03-10T02:03:21.121Z,98495.00
2023-03-10T02:05:56.924Z,98504.00
2023-03-10T02:08:26.556Z,98491.00
2023-03-10T02:10:54.254Z,98488.00
2023-03-10T02:13:21.106Z,98478.00
2023-03-10T02:15:49.317Z,98476.00
2023-03-10T02:18:18.007Z,98472.00
2023-03-10T02:21:17.842Z,98425.00
2023-03-10T02:24:12.019Z,98448.00
2023-03-10T02:27:08.556Z,98435.00
2023-03-10T02:29:52.435Z,98437.00
2023-03-10T02:32:25.202Z,98406.00
2023-03-10T02:34:52.255Z,98438.00
2023-03-10T02:37:31.979Z,98438.00
2023-03-10T02:39:59.060Z,98424.00
2023-03-10T02:42:34.255Z,98429.00
2023-03-10T02:45:03.388Z,98438.00
2023-03-10T02:47:30.413Z,98369.00
2023-03-10T02:49:57.206Z,98408.00
2023-03-10T02:52:43.079Z,98404.00
2023-03-10T02:55:16.632Z,98383.00
2023-03-10T02:57:43.438Z,98373.00
2023-03-10T03:00:11.893Z,98379.00
2023-03-10T03:02:38.990Z,98371.00
2023-03-10T03:05:06.459Z,98370.00
2023-03-10T03:07:33.465Z,98368.00
2023-03-10T03:10:00.300Z,98358.00
2023-03-10T03:12:27.162Z,98355.00
2023-03-10T03:14:54.132Z,98359.00
2023-03-10T03:17:21.033Z,98348.00
2023-03-10T03:19:47.850Z,98347.00
2023-03-10T03:22:14.669Z,98345.00
2023-03-10T03:24:41.609Z,98329.00
2023-03-10T03:27:08.447Z,98333.00
2023-03-10T03:29:35.373Z,98326.00
2023-03-10T03:32:02.516Z,98306.00
2023-03-10T03:34:29.377Z,98322.00
2023-03-10T03:36:56.218Z,98318.00
2023-03-10T03:39:23.102Z,98312.00
2023-03-10T03:41:53.309Z,98317.00
2023-03-10T03:44:20.228Z,98316.00
2023-03-10T03:46:47.095Z,98302.00
2023-03-10T03:49:13.955Z,98282.00
2023-03-10T03:51:41.133Z,98295.00
2023-03-10T03:54:07.980Z,98291.00
2023-03-10T03:56:34.773Z,98282.00
2023-03-10T03:59:01.650Z,98259.00
2023-03-10T04:01:28.451Z,98270.00
2023-03-10T04:03:55.446Z,98267.00
2023-03-10T04:06:22.365Z,98263.00
2023-03-10T04:08:50.430Z,98255.00
2023-03-10T04:11:17.299Z,98254.00
2023-03-10T04:13:44.134Z,98250.00
2023-03-10T04:16:11.105Z,98247.00
2023-03-10T04:18:38.027Z,98238.00
2023-03-10T04:21:05.182Z,98239.00
2023-03-10T04:23:32.628Z,98213.00
2023-03-10T04:25:59.755Z,98220.00
2023-03-10T04:28:26.627Z,98223.00
2023-03-10T04:30:53.559Z,98209.00
2023-03-10T04:33:22.752Z,98216.00
2023-03-10T04:35:51.352Z,98196.00
2023-03-10T04:38:19.282Z,98201.00
2023-03-10T04:40:46.239Z,98209.00
2023-03-10T04:43:13.092Z,98205.00
2023-03-10T04:45:39.980Z,98195.00
2023-03-10T04:48:06.821Z,98184.00
2023-03-10T04:50:33.622Z,98192.00
2023-03-10T04:53:00.856Z,98180.00
2023-03-10T04:55:27.693Z,98172.00
2023-03-10T04:57:54.549Z,98160.00
2023-03-10T05:00:22.777Z,98164.00
2023-03-10T05:02:49.740Z,98170.00
2023-03-10T05:05:16.774Z,98160.00
2023-03-10T05:07:43.924Z,98154.00
2023-03-10T05:10:11.980Z,98156.00
2023-03-10T05:12:40.024Z,98156.00
2023-03-10T05:15:07.791Z,98152.00
2023-03-10T05:17:34.636Z,98144.00
2023-03-10T05:20:01.553Z,98137.00
2023-03-10T05:22:28.377Z,98136.00
2023-03-10T05:24:55.230Z,98128.00
2023-03-10T05:27:22.177Z,98130.00
2023-03-10T05:29:49.162Z,98114.00
2023-03-10T05:32:16.264Z,98113.00
2023-03-10T05:34:43.143Z,98114.00
2023-03-10T05:37:10.055Z,98084.00
2023-03-10T05:39:36.967Z,98110.00
2023-03-10T05:42:04.030Z,98091.00
2023-03-10T05:44:30.878Z,98100.00
2023-03-10T05:46:57.819Z,98095.00
2023-03-10T05:49:24.784Z,98095.00
2023-03-10T05:51:52.736Z,98097.00
2023-03-10T05:54:19.615Z,98089.00
2023-03-10T05:56:46.423Z,98093.00
2023-03-10T05:59:14.556Z,98086.00
2023-03-10T06:01:41.450Z,98087.00
2023-03-10T06:04:08.471Z,98074.00
2023-03-10T06:06:36.874Z,98074.00
2023-03-10T06:09:04.150Z,98078.00
2023-03-10T06:11:31.102Z,98077.00
2023-03-10T06:13:58.045Z,98077.00
2023-03-10T06:16:25.308Z,98072.00
2023-03-10T06:18:56.924Z,98067.00
2023-03-10T06:21:25.287Z,98070.00
2023-03-10T06:23:52.476Z,98052.00
2023-03-10T06:26:19.490Z,98059.00
2023-03-10T06:28:47.112Z,98054.00
2023-03-10T06:31:21.082Z,98054.00
2023-03-10T06:33:48.521Z,98032.00
2023-03-10T06:36:16.726Z,98045.00
2023-03-10T06:38:44.418Z,98038.00
2023-03-10T06:41:11.907Z,98036.00
2023-03-10T06:43:40.272Z,98033.00
2023-03-10T06:46:10.126Z,98028.00
2023-03-10T06:48:38.840Z,98038.00
2023-03-10T06:51:09.199Z,98023.00
2023-03-10T06:53:36.177Z,98015.00
2023-03-10T06:56:08.763Z,98028.00
2023-03-10T06:58:37.839Z,98024.00
2023-03-10T07:01:07.512Z,97996.00
2023-03-10T07:03:36.784Z,98013.00
2023-03-10T07:06:05.120Z,98004.00
2023-03-10T07:08:31.935Z,98010.00
2023-03-10T07:10:59.176Z,98007.00
2023-03-10T07:13:26.015Z,98001.00
2023-03-10T07:15:52.835Z,97997.00
2023-03-10T07:18:20.084Z,97949.00
2023-03-10T07:20:48.147Z,97993.00
2023-03-10T07:23:15.937Z,97990.00
2023-03-10T07:25:42.773Z,97989.00
2023-03-10T07:28:09.727Z,97984.00
2023-03-10T07:30:38.673Z,97986.00
2023-03-10T07:33:05.710Z,97977.00
2023-03-10T07:35:34.201Z,97979.00
2023-03-10T07:38:03.815Z,97958.00
2023-03-10T07:40:30.853Z,97966.00
2023-03-10T07:42:57.733Z,97955.00
2023-03-10T07:45:26.517Z,97961.00
2023-03-10T07:47:54.866Z,97953.00
2023-03-10T07:50:22.607Z,97946.00
2023-03-10T07:52:49.713Z,97945.00
2023-03-10T07:55:17.961Z,97924.00
2023-03-10T07:57:44.941Z,97928.00
2023-03-10T08:00:12.989Z,97899.00
2023-03-10T08:02:40.917Z,97927.00
2023-03-10T08:05:09.357Z,97926.00
2023-03-10T08:07:37.212Z,97921.00
2023-03-10T08:10:05.252Z,97918.00
2023-03-10T08:12:32.128Z,97914.00
2023-03-10T08:14:59.515Z,97916.00
2023-03-10T08:17:30.779Z,97921.00
2023-03-10T08:19:58.842Z,97913.00
2023-03-10T08:22:26.638Z,97913.00
2023-03-10T08:24:54.059Z,97906.00
2023-03-10T08:27:21.678Z,97909.00
2023-03-10T08:29:48.554Z,97903.00
2023-03-10T08:32:15.503Z,97905.00
2023-03-10T08:34:43.149Z,97901.00
2023-03-10T08:37:11.517Z,97905.00
2023-03-10T08:39:38.980Z,97888.00
2023-03-10T08:42:06.692Z,97902.00
2023-03-10T08:44:33.613Z,97903.00
2023-03-10T08:47:00.674Z,97892.00
2023-03-10T08:49:28.099Z,97893.00
2023-03-10T08:51:55.274Z,97887.00
2023-03-10T08:54:23.228Z,97888.00
2023-03-10T08:56:50.073Z,97883.00
2023-03-10T08:59:17.039Z,97883.00
2023-03-10T09:01:43.962Z,97881.00
2023-03-10T09:04:11.939Z,97881.00
2023-03-10T09:06:39.568Z,97884.00
2023-03-10T09:09:10.034Z,97875.00
2023-03-10T09:11:40.706Z,97868.00
2023-03-10T09:14:10.024Z,97868.00
2023-03-10T09:16:39.415Z,97861.00
2023-03-10T09:19:06.740Z,97862.00
2023-03-10T09:21:34.317Z,97852.00
2023-03-10T09:24:02.658Z,97851.00
2023-03-10T09:26:30.122Z,97838.00
2023-03-10T09:28:57.435Z,97849.00
2023-03-10T09:31:38.157Z,97845.00
2023-03-10T09:34:06.686Z,97842.00
2023-03-10T09:36:34.321Z,97841.00
2023-03-10T09:39:02.396Z,97845.00
2023-03-10T09:41:47.139Z,97838.00
2023-03-10T09:44:43.390Z,97830.00
2023-03-10T09:47:10.792Z,97838.00
2023-03-10T09:49:55.207Z,97837.00
2023-03-10T09:52:38.616Z,97820.00
2023-03-10T09:55:19.242Z,97837.00
2023-03-10T09:57:57.171Z,97828.00
2023-03-10T10:00:45.118Z,97838.00
2023-03-10T10:03:23.591Z,97828.00
2023-03-10T10:05:55.185Z,97787.00
2023-03-10T10:08:32.901Z,97821.00
2023-03-10T10:11:01.423Z,97820.00
2023-03-10T10:13:30.593Z,97812.00
2023-03-10T10:16:34.207Z,97829.00
2023-03-10T10:19:14.652Z,97811.00
2023-03-10T10:21:48.929Z,97798.00
2023-03-10T10:24:18.769Z,97808.00
2023-03-10T10:26:45.869Z,97810.00
2023-03-10T10:29:32.752Z,97811.00
2023-03-10T10:32:15.408Z,97809.00
2023-03-10T10:34:45.773Z,97809.00
2023-03-10T10:37:37.203Z,97805.00
2023-03-10T10:40:27.695Z,97812.00
2023-03-10T10:42:57.102Z,97819.00
2023-03-10T10:45:32.497Z,97816.00
2023-03-10T10:47:59.449Z,97810.00
2023-03-10T10:50:31.035Z,97815.00
2023-03-10T10:53:15.891Z,97808.00
2023-03-10T10:55:46.414Z,97767.00
2023-03-10T10:58:34.929Z,97812.00
2023-03-10T11:01:09.618Z,97802.00
2023-03-10T11:03:40.820Z,97778.00
2023-03-10T11:06:27.560Z,97777.00
2023-03-10T11:09:23.141Z,97753.00
2023-03-10T11:12:35.108Z,97788.00
2023-03-10T11:15:24.351Z,97775.00
2023-03-10T11:17:59.264Z,97778.00
2023-03-10T11:20:48.228Z,97776.00
2023-03-10T11:23:39.260Z,97778.00
2023-03-10T11:26:43.017Z,97777.00
2023-03-10T11:29:34.354Z,97768.00
2023-03-10T11:32:21.972Z,97765.00
2023-03-10T11:34:55.988Z,97762.00
2023-03-10T11:37:33.266Z,97766.00
2023-03-10T11:40:26.548Z,97754.00
2023-03-10T11:43:23.261Z,97766.00
2023-03-10T11:45:54.240Z,97765.00
2023-03-10T11:48:35.794Z,97774.00
2023-03-10T11:51:05.486Z,97756.00
2023-03-10T11:53:45.543Z,97767.00
2023-03-10T11:56:17.073Z,97761.00
2023-03-10T11:59:05.436Z,97770.00
2023-03-10T12:02:15.751Z,97770.00
2023-03-10T12:05:03.449Z,97765.00
2023-03-10T12:07:39.534Z,97769.00
2023-03-10T12:10:12.436Z,97762.00
2023-03-10T12:12:43.815Z,97758.00
2023-03-10T12:15:32.408Z,97746.00
2023-03-10T12:17:59.753Z,97748.00
2023-03-10T12:20:30.182Z,97761.00
2023-03-10T12:22:59.516Z,97766.00
2023-03-10T12:25:29.595Z,97761.00
2023-03-10T12:28:18.348Z,97773.00
2023-03-10T12:31:00.311Z,97755.00
2023-03-10T12:33:42.382Z,97755.00
2023-03-10T12:36:29.871Z,97766.00
2023-03-10T12:39:24.729Z,97760.00
2023-03-10T12:41:54.133Z,97757.00
2023-03-10T12:44:43.555Z,97762.00
2023-03-10T12:47:35.820Z,97765.00
2023-03-10T12:50:16.750Z,97762.00
2023-03-10T12:52:47.995Z,97768.00
2023-03-10T12:55:24.239Z,97751.00
2023-03-10T12:57:57.163Z,97742.00
2023-03-10T13:00:38.290Z,97761.00
2023-03-10T13:03:19.579Z,97765.00
2023-03-10T13:06:13.171Z,97750.00
2023-03-10T13:08:41.950Z,97741.00
2023-03-10T13:11:43.134Z,97739.00
2023-03-10T13:14:17.766Z,97750.00
2023-03-10T13:17:00.682Z,97754.00
2023-03-10T13:19:31.501Z,97758.00
2023-03-10T13:21:59.459Z,97762.00
2023-03-10T13:24:32.124Z,97770.00
2023-03-10T13:27:19.866Z,97766.00
2023-03-10T13:30:16.721Z,97760.00
2023-03-10T13:32:53.393Z,97758.00
2023-03-10T13:35:37.567Z,97754.00
2023-03-10T13:38:08.566Z,97762.00
2023-03-10T13:40:39.571Z,97762.00
2023-03-10T13:43:26.577Z,97765.00
2023-03-10T13:45:58.919Z,97775.00
2023-03-10T13:48:28.910Z,97772.00
2023-03-10T13:51:25.384Z,97773.00
2023-03-10T13:53:55.884Z,97766.00
2023-03-10T13:56:37.940Z,97761.00
2023-03-10T13:59:28.336Z,97745.00
2023-03-10T14:01:59.052Z,97733.00
2023-03-10T14:04:45.798Z,97734.00
2023-03-10T14:07:21.473Z,97740.00
2023-03-10T14:10:10.124Z,97737.00
2023-03-10T14:12:53.462Z,97747.00
2023-03-10T14:15:22.951Z,97741.00
2023-03-10T14:18:06.734Z,97740.00
2023-03-10T14:20:45.959Z,97746.00
2023-03-10T14:23:18.775Z,97740.00
2023-03-10T14:25:48.373Z,97741.00
2023-03-10T14:28:24.254Z,97743.00
2023-03-10T14:30:51.564Z,97751.00
2023-03-10T14:33:19.474Z,97762.00
2023-03-10T14:35:47.200Z,97755.00
2023-03-10T14:38:14.170Z,97766.00
2023-03-10T14:40:55.403Z,97761.00
2023-03-10T14:43:28.148Z,97758.00
2023-03-10T14:46:01.584Z,97756.00
2023-03-10T14:48:35.556Z,97752.00
2023-03-10T14:51:03.129Z,97754.00
2023-03-10T14:53:33.499Z,97749.00
2023-03-10T14:56:02.528Z,97760.00
2023-03-10T14:58:43.566Z,97752.00
2023-03-10T15:01:10.512Z,97753.00
2023-03-10T15:03:37.542Z,97754.00
2023-03-10T15:06:04.533Z,97758.00
2023-03-10T15:08:31.573Z,97756.00
2023-03-10T15:10:58.803Z,97755.00
2023-03-10T15:13:25.799Z,97749.00
2023-03-10T15:15:53.487Z,97745.00
2023-03-10T15:18:24.388Z,97744.00
2023-03-10T15:20:51.450Z,97747.00
2023-03-10T15:23:20.120Z,97734.00
2023-03-10T15:25:48.012Z,97734.00
2023-03-10T15:28:15.880Z,97742.00
2023-03-10T15:30:43.223Z,97736.00
2023-03-10T15:33:11.129Z,97741.00
2023-03-10T15:35:39.497Z,97740.00
2023-03-10T15:38:11.288Z,97733.00
2023-03-10T15:40:39.077Z,97739.00
2023-03-10T15:43:06.380Z,97736.00
2023-03-10T15:45:34.082Z,97740.00
2023-03-10T15:48:01.083Z,97740.00
2023-03-10T15:50:28.321Z,97737.00
2023-03-10T15:52:59.001Z,97740.00
2023-03-10T15:55:29.183Z,97754.00
2023-03-10T15:57:56.438Z,97743.00
2023-03-10T16:00:26.068Z,97740.00
2023-03-10T16:02:54.060Z,97741.00
2023-03-10T16:05:21.595Z,97734.00
2023-03-10T16:07:48.573Z,97740.00
2023-03-10T16:10:19.931Z,97740.00
2023-03-10T16:12:47.543Z,97741.00
2023-03-10T16:15:18.076Z,97734.00
2023-03-10T16:17:45.955Z,97732.00
2023-03-10T16:20:13.833Z,97748.00
2023-03-10T16:22:42.987Z,97747.00
2023-03-10T16:25:16.241Z,97742.00
2023-03-10T16:27:45.807Z,97741.00
2023-03-10T16:30:15.719Z,97739.00
2023-03-10T16:32:47.685Z,97744.00
2023-03-10T16:35:16.146Z,97741.00
2023-03-10T16:37:43.457Z,97737.00
2023-03-10T16:40:11.579Z,97742.00
2023-03-10T16:42:38.927Z,97743.00
2023-03-10T16:45:07.494Z,97704.00
2023-03-10T16:47:34.406Z,97729.00
2023-03-10T16:50:01.477Z,97726.00
2023-03-10T16:52:28.336Z,97733.00
2023-03-10T16:55:01.424Z,97725.00
2023-03-10T16:57:28.541Z,97710.00
2023-03-10T16:59:58.167Z,97736.00
2023-03-10T17:02:25.062Z,97742.00
2023-03-10T17:04:53.416Z,97728.00
2023-03-10T17:07:20.257Z,97735.00
2023-03-10T17:09:47.178Z,97751.00
2023-03-10T17:12:14.188Z,97757.00
2023-03-10T17:14:41.191Z,97757.00
2023-03-10T17:17:08.517Z,97753.00
2023-03-10T17:19:35.680Z,97755.00
2023-03-10T17:22:03.012Z,97748.00
2023-03-10T17:24:31.318Z,97756.00
2023-03-10T17:26:58.397Z,97747.00
2023-03-10T17:29:25.818Z,97751.00
2023-03-10T17:31:52.933Z,97751.00
2023-03-10T17:34:20.326Z,97726.00
2023-03-10T17:36:51.307Z,97755.00
2023-03-10T17:39:22.037Z,97756.00
2023-03-10T17:41:49.654Z,97748.00
2023-03-10T17:44:17.388Z,97738.00
2023-03-10T17:46:45.431Z,97733.00
2023-03-10T17:49:15.181Z,97745.00
2023-03-10T17:51:44.479Z,97735.00
2023-03-10T17:54:20.196Z,97723.00
2023-03-10T17:56:48.430Z,97727.00
2023-03-10T17:59:16.257Z,97716.00
2023-03-10T18:01:45.427Z,97713.00
2023-03-10T18:04:12.727Z,97705.00
2023-03-10T18:06:40.071Z,97713.00
2023-03-10T18:09:12.782Z,97714.00
2023-03-10T18:11:40.189Z,97711.00
2023-03-10T18:14:07.647Z,97720.00
2023-03-10T18:16:40.092Z,97706.00
2023-03-10T18:19:10.718Z,97707.00
2023-03-10T18:21:38.912Z,97714.00
2023-03-10T18:24:06.789Z,97708.00
2023-03-10T18:26:35.773Z,97705.00
2023-03-10T18:29:02.810Z,97707.00
2023-03-10T18:31:33.065Z,97698.00
2023-03-10T18:34:01.303Z,97693.00
2023-03-10T18:36:29.847Z,97698.00
2023-03-10T18:38:57.449Z,97708.00
2023-03-10T18:41:27.492Z,97700.00
2023-03-10T18:43:54.563Z,97691.00
2023-03-10T18:46:22.278Z,97693.00
2023-03-10T18:48:55.542Z,97688.00
2023-03-10T18:51:28.434Z,97676.00
2023-03-10T18:53:55.942Z,97664.00
2023-03-10T18:56:26.006Z,97669.00
2023-03-10T18:58:53.371Z,97658.00
2023-03-10T19:01:21.110Z,97652.00
2023-03-10T19:03:48.131Z,97641.00
2023-03-10T19:06:15.153Z,97636.00
2023-03-10T19:08:42.140Z,97650.00
2023-03-10T19:11:09.495Z,97641.00
2023-03-10T19:13:40.448Z,97636.00
2023-03-10T19:16:10.025Z,97635.00
2023-03-10T19:18:37.658Z,97599.00
2023-03-10T19:21:06.176Z,97642.00
2023-03-10T19:23:34.940Z,97633.00
2023-03-10T19:26:03.491Z,97636.00
2023-03-10T19:28:31.417Z,97629.00
2023-03-10T19:30:58.854Z,97641.00
2023-03-10T19:33:25.833Z,97648.00
2023-03-10T19:36:11.876Z,97646.00
2023-03-10T19:38:40.938Z,97635.00
2023-03-10T19:41:19.389Z,97644.00
2023-03-10T19:43:49.164Z,97640.00
2023-03-10T19:46:17.969Z,97645.00
2023-03-10T19:48:45.489Z,97638.00
2023-03-10T19:51:28.203Z,97642.00
2023-03-10T19:53:59.954Z,97637.00
2023-03-10T19:56:26.927Z,97634.00
2023-03-10T19:58:53.984Z,97638.00
2023-03-10T20:01:25.192Z,97631.00
2023-03-10T20:03:55.484Z,97624.00
2023-03-10T20:06:23.277Z,97631.00
2023-03-10T20:08:51.532Z,97624.00
2023-03-10T20:11:19.880Z,97594.00
2023-03-10T20:13:47.063Z,97636.00
2023-03-10T20:16:15.893Z,97622.00
2023-03-10T20:18:43.186Z,97617.00
2023-03-10T20:21:10.378Z,97613.00
2023-03-10T20:23:37.573Z,97611.00
2023-03-10T20:26:08.890Z,97610.00
2023-03-10T20:28:39.779Z,97611.00
2023-03-10T20:31:07.006Z,97604.00
2023-03-10T20:33:36.304Z,97593.00
2023-03-10T20:36:03.504Z,97605.00
2023-03-10T20:38:30.456Z,97609.00
2023-03-10T20:40:57.545Z,97609.00
2023-03-10T20:43:24.523Z,97603.00
2023-03-10T20:45:52.603Z,97582.00
2023-03-10T20:48:19.617Z,97603.00
2023-03-10T20:50:46.486Z,97595.00
2023-03-10T20:53:13.320Z,97600.00
2023-03-10T20:55:42.335Z,97603.00
2023-03-10T20:58:09.185Z,97592.00
2023-03-10T21:00:36.088Z,97563.00
2023-03-10T21:03:02.885Z,97597.00
2023-03-10T21:05:29.815Z,97590.00
2023-03-10T21:07:58.216Z,97594.00
2023-03-10T21:10:27.774Z,97579.00
2023-03-10T21:12:54.656Z,97548.00
2023-03-10T21:15:23.728Z,97585.00
2023-03-10T21:17:50.985Z,97578.00
2023-03-10T21:20:21.938Z,97570.00
2023-03-10T21:22:49.295Z,97578.00
2023-03-10T21:25:23.980Z,97554.00
2023-03-10T21:27:58.585Z,97550.00
2023-03-10T21:30:28.857Z,97521.00
2023-03-10T21:32:56.831Z,97559.00
2023-03-10T21:35:26.332Z,97553.00
2023-03-10T21:37:55.272Z,97540.00
2023-03-10T21:40:24.142Z,97540.00
2023-03-10T21:42:51.205Z,97534.00
2023-03-10T21:45:24.323Z,97534.00
2023-03-10T21:47:51.467Z,97535.00
2023-03-10T21:50:19.714Z,97532.00
2023-03-10T21:52:48.114Z,97532.00
2023-03-10T21:55:24.276Z,97517.00
2023-03-10T21:57:52.436Z,97528.00
2023-03-10T22:00:23.165Z,97520.00
2023-03-10T22:02:51.941Z,97519.00
2023-03-10T22:05:20.168Z,97520.00
2023-03-10T22:07:47.081Z,97514.00
2023-03-10T22:10:15.660Z,97521.00
2023-03-10T22:12:42.873Z,97524.00
2023-03-10T22:15:17.840Z,97515.00
2023-03-10T22:17:44.955Z,97521.00
2023-03-10T22:20:27.107Z,97527.00
2023-03-10T22:22:54.494Z,97528.00
2023-03-10T22:25:21.784Z,97519.00
2023-03-10T22:27:53.142Z,97528.00
2023-03-10T22:30:23.169Z,97526.00
2023-03-10T22:32:50.293Z,97523.00
2023-03-10T22:35:18.171Z,97515.00
2023-03-10T22:37:45.539Z,97513.00
2023-03-10T22:40:25.081Z,97517.00
2023-03-10T22:42:53.021Z,97511.00
2023-03-10T22:45:29.974Z,97521.00
2023-03-10T22:48:03.898Z,97516.00
2023-03-10T22:50:40.704Z,97510.00
2023-03-10T22:53:16.841Z,97512.00
2023-03-10T22:55:46.359Z,97504.00
2023-03-10T22:58:14.318Z,97501.00
2023-03-10T23:00:42.520Z,97496.00
2023-03-10T23:03:15.301Z,97490.00
2023-03-10T23:05:44.935Z,97489.00
2023-03-10T23:08:12.620Z,97486.00
2023-03-10T23:10:41.777Z,97488.00
2023-03-10T23:13:15.416Z,97482.00
2023-03-10T23:15:43.171Z,97477.00
2023-03-10T23:18:10.913Z,97479.00
2023-03-10T23:20:47.732Z,97469.00
2023-03-10T23:23:16.216Z,97475.00
2023-03-10T23:25:51.021Z,97472.00
2023-03-10T23:28:21.829Z,97476.00
2023-03-10T23:30:50.858Z,97478.00
2023-03-10T23:33:21.587Z,97465.00
2023-03-10T23:35:54.336Z,97462.00
2023-03-10T23:38:23.093Z,97476.00
2023-03-10T23:40:50.838Z,97477.00
2023-03-10T23:43:18.606Z,97481.00
2023-03-10T23:45:45.808Z,97463.00
2023-03-10T23:48:18.565Z,97467.00
2023-03-10T23:50:48.223Z,97462.00
2023-03-10T23:53:17.531Z,97463.00
2023-03-10T23:55:47.197Z,97462.00
2023-03-10T23:58:16.929Z,97470.00
